sensor_id;sensor_type;location;lat;lon;timestamp;pressure;altitude;pressure_sealevel;temperature;humidity
34696;BME280;20918;51.138;17.370;2023-04-28T00:02:18;100685.60;;;3.94;70.95
34696;BME280;20918;51.138;17.370;2023-04-28T00:05:21;100682.38;;;3.93;71.00
34696;BME280;20918;51.138;17.370;2023-04-28T00:08:25;100680.83;;;3.93;71.17
34696;BME280;20918;51.138;17.370;2023-04-28T00:11:26;100674.86;;;3.90;70.90
34696;BME280;20918;51.138;17.370;2023-04-28T00:14:29;100679.33;;;3.84;71.23
34696;BME280;20918;51.138;17.370;2023-04-28T00:17:31;100684.61;;;3.86;71.30
34696;BME280;20918;51.138;17.370;2023-04-28T00:20:52;100689.05;;;3.93;71.27
34696;BME280;20918;51.138;17.370;2023-04-28T00:23:53;100690.26;;;3.98;71.40
34696;BME280;20918;51.138;17.370;2023-04-28T00:26:54;100684.85;;;4.02;71.70
34696;BME280;20918;51.138;17.370;2023-04-28T00:30:00;100679.88;;;4.06;72.00
34696;BME280;20918;51.138;17.370;2023-04-28T00:33:01;100672.97;;;4.10;72.00
34696;BME280;20918;51.138;17.370;2023-04-28T00:36:02;100675.59;;;4.04;71.84
34696;BME280;20918;51.138;17.370;2023-04-28T00:39:15;100671.75;;;3.97;72.17
34696;BME280;20918;51.138;17.370;2023-04-28T00:42:17;100671.06;;;3.97;72.08
34696;BME280;20918;51.138;17.370;2023-04-28T00:45:21;100667.94;;;4.01;72.15
34696;BME280;20918;51.138;17.370;2023-04-28T00:48:22;100669.55;;;4.03;72.03
34696;BME280;20918;51.138;17.370;2023-04-28T00:51:23;100667.56;;;3.99;72.02
34696;BME280;20918;51.138;17.370;2023-04-28T00:54:24;100662.47;;;3.95;72.43
34696;BME280;20918;51.138;17.370;2023-04-28T00:57:25;100662.09;;;3.90;72.42
34696;BME280;20918;51.138;17.370;2023-04-28T01:00:26;100664.30;;;3.91;72.34
34696;BME280;20918;51.138;17.370;2023-04-28T01:03:27;100657.47;;;3.91;72.38
34696;BME280;20918;51.138;17.370;2023-04-28T01:06:29;100657.02;;;3.86;72.53
34696;BME280;20918;51.138;17.370;2023-04-28T01:09:32;100657.66;;;3.81;72.49
34696;BME280;20918;51.138;17.370;2023-04-28T01:12:32;100653.48;;;3.76;72.56
34696;BME280;20918;51.138;17.370;2023-04-28T01:15:33;100653.16;;;3.73;72.66
34696;BME280;20918;51.138;17.370;2023-04-28T01:18:37;100655.59;;;3.69;72.86
34696;BME280;20918;51.138;17.370;2023-04-28T01:21:42;100652.10;;;3.61;72.71
34696;BME280;20918;51.138;17.370;2023-04-28T01:24:57;100649.02;;;3.53;72.74
34696;BME280;20918;51.138;17.370;2023-04-28T01:27:59;100645.21;;;3.42;73.01
34696;BME280;20918;51.138;17.370;2023-04-28T01:31:08;100645.08;;;3.32;73.33
34696;BME280;20918;51.138;17.370;2023-04-28T01:34:12;100642.04;;;3.23;73.42
34696;BME280;20918;51.138;17.370;2023-04-28T01:37:13;100640.32;;;3.17;73.60
34696;BME280;20918;51.138;17.370;2023-04-28T01:40:23;100636.77;;;3.12;73.63
34696;BME280;20918;51.138;17.370;2023-04-28T01:43:27;100635.34;;;3.08;73.59
34696;BME280;20918;51.138;17.370;2023-04-28T01:46:31;100630.27;;;3.03;73.71
34696;BME280;20918;51.138;17.370;2023-04-28T01:49:32;100627.09;;;3.01;73.84
34696;BME280;20918;51.138;17.370;2023-04-28T01:52:33;100629.76;;;3.00;73.72
34696;BME280;20918;51.138;17.370;2023-04-28T01:55:34;100629.06;;;3.00;73.76
34696;BME280;20918;51.138;17.370;2023-04-28T01:58:35;100625.64;;;3.02;73.90
34696;BME280;20918;51.138;17.370;2023-04-28T02:01:35;100626.05;;;3.01;73.98
34696;BME280;20918;51.138;17.370;2023-04-28T02:04:37;100626.12;;;2.98;73.90
34696;BME280;20918;51.138;17.370;2023-04-28T02:07:42;100625.96;;;2.97;73.99
34696;BME280;20918;51.138;17.370;2023-04-28T02:10:46;100624.24;;;2.97;74.21
34696;BME280;20918;51.138;17.370;2023-04-28T02:13:55;100624.33;;;2.96;74.20
34696;BME280;20918;51.138;17.370;2023-04-28T02:16:59;100620.32;;;2.96;74.42
34696;BME280;20918;51.138;17.370;2023-04-28T02:20:08;100622.75;;;2.96;74.15
34696;BME280;20918;51.138;17.370;2023-04-28T02:23:09;100622.37;;;2.96;74.27
34696;BME280;20918;51.138;17.370;2023-04-28T02:26:10;100626.60;;;2.98;74.30
34696;BME280;20918;51.138;17.370;2023-04-28T02:29:11;100626.23;;;3.01;74.24
34696;BME280;20918;51.138;17.370;2023-04-28T02:32:11;100623.90;;;3.04;74.27
34696;BME280;20918;51.138;17.370;2023-04-28T02:35:13;100622.15;;;3.07;74.15
34696;BME280;20918;51.138;17.370;2023-04-28T02:38:14;100620.50;;;3.10;74.35
34696;BME280;20918;51.138;17.370;2023-04-28T02:41:14;100622.95;;;3.16;74.47
34696;BME280;20918;51.138;17.370;2023-04-28T02:44:15;100624.63;;;3.17;74.75
34696;BME280;20918;51.138;17.370;2023-04-28T02:47:16;100614.39;;;3.15;74.55
34696;BME280;20918;51.138;17.370;2023-04-28T02:50:27;100612.21;;;3.14;74.81
34696;BME280;20918;51.138;17.370;2023-04-28T02:53:31;100618.94;;;3.10;74.56
34696;BME280;20918;51.138;17.370;2023-04-28T02:56:33;100616.06;;;3.04;74.66
34696;BME280;20918;51.138;17.370;2023-04-28T02:59:37;100613.25;;;3.01;74.66
34696;BME280;20918;51.138;17.370;2023-04-28T03:02:38;100607.39;;;3.03;74.74
34696;BME280;20918;51.138;17.370;2023-04-28T03:05:39;100603.73;;;3.05;74.70
34696;BME280;20918;51.138;17.370;2023-04-28T03:08:40;100605.01;;;3.10;74.43
34696;BME280;20918;51.138;17.370;2023-04-28T03:11:41;100602.14;;;3.13;74.34
34696;BME280;20918;51.138;17.370;2023-04-28T03:14:42;100599.54;;;3.15;74.33
34696;BME280;20918;51.138;17.370;2023-04-28T03:17:46;100597.42;;;3.19;74.26
34696;BME280;20918;51.138;17.370;2023-04-28T03:20:47;100595.02;;;3.20;74.62
34696;BME280;20918;51.138;17.370;2023-04-28T03:23:51;100594.16;;;3.18;74.44
34696;BME280;20918;51.138;17.370;2023-04-28T03:26:55;100594.12;;;3.16;74.60
34696;BME280;20918;51.138;17.370;2023-04-28T03:30:07;100601.17;;;3.17;74.52
34696;BME280;20918;51.138;17.370;2023-04-28T03:33:12;100600.29;;;3.17;74.74
34696;BME280;20918;51.138;17.370;2023-04-28T03:36:19;100597.21;;;3.19;74.34
34696;BME280;20918;51.138;17.370;2023-04-28T03:39:20;100598.57;;;3.22;74.35
34696;BME280;20918;51.138;17.370;2023-04-28T03:42:21;100601.21;;;3.27;74.36
34696;BME280;20918;51.138;17.370;2023-04-28T03:45:40;100598.81;;;3.30;74.56
34696;BME280;20918;51.138;17.370;2023-04-28T03:48:42;100604.84;;;3.34;74.46
34696;BME280;20918;51.138;17.370;2023-04-28T03:51:48;100599.29;;;3.39;74.10
34696;BME280;20918;51.138;17.370;2023-04-28T03:54:52;100599.01;;;3.43;74.07
34696;BME280;20918;51.138;17.370;2023-04-28T03:58:04;100604.92;;;3.43;74.03
34696;BME280;20918;51.138;17.370;2023-04-28T04:01:07;100600.98;;;3.40;74.16
34696;BME280;20918;51.138;17.370;2023-04-28T04:04:08;100601.05;;;3.39;74.34
34696;BME280;20918;51.138;17.370;2023-04-28T04:07:13;100599.99;;;3.41;74.37
34696;BME280;20918;51.138;17.370;2023-04-28T04:10:16;100603.92;;;3.45;74.38
34696;BME280;20918;51.138;17.370;2023-04-28T04:16:43;100600.02;;;3.53;74.23
34696;BME280;20918;51.138;17.370;2023-04-28T04:19:44;100603.02;;;3.60;74.31
34696;BME280;20918;51.138;17.370;2023-04-28T04:22:45;100600.97;;;3.64;74.17
34696;BME280;20918;51.138;17.370;2023-04-28T04:25:46;100601.29;;;3.70;74.13
34696;BME280;20918;51.138;17.370;2023-04-28T04:28:54;100599.55;;;3.86;74.55
34696;BME280;20918;51.138;17.370;2023-04-28T04:31:57;100602.59;;;4.26;74.35
34696;BME280;20918;51.138;17.370;2023-04-28T04:34:58;100601.45;;;4.62;73.94
34696;BME280;20918;51.138;17.370;2023-04-28T04:37:59;100600.66;;;4.97;73.77
34696;BME280;20918;51.138;17.370;2023-04-28T04:41:01;100603.20;;;5.37;73.41
34696;BME280;20918;51.138;17.370;2023-04-28T04:44:02;100599.71;;;5.71;73.09
34696;BME280;20918;51.138;17.370;2023-04-28T04:47:09;100593.95;;;6.04;72.50
34696;BME280;20918;51.138;17.370;2023-04-28T04:50:10;100590.90;;;6.39;72.37
34696;BME280;20918;51.138;17.370;2023-04-28T04:53:15;100587.40;;;6.68;71.73
34696;BME280;20918;51.138;17.370;2023-04-28T04:56:25;100578.05;;;6.70;70.93
34696;BME280;20918;51.138;17.370;2023-04-28T04:59:36;100579.50;;;6.59;70.49
34696;BME280;20918;51.138;17.370;2023-04-28T05:02:56;100578.73;;;6.50;70.46
34696;BME280;20918;51.138;17.370;2023-04-28T05:05:57;100573.27;;;6.44;70.36
34696;BME280;20918;51.138;17.370;2023-04-28T05:09:07;100573.47;;;6.41;70.30
34696;BME280;20918;51.138;17.370;2023-04-28T05:12:12;100575.07;;;6.41;70.20
34696;BME280;20918;51.138;17.370;2023-04-28T05:15:12;100574.43;;;6.32;69.98
34696;BME280;20918;51.138;17.370;2023-04-28T05:18:17;100575.90;;;6.27;70.03
34696;BME280;20918;51.138;17.370;2023-04-28T05:21:29;100574.47;;;6.21;69.69
34696;BME280;20918;51.138;17.370;2023-04-28T05:24:31;100575.58;;;6.18;69.50
34696;BME280;20918;51.138;17.370;2023-04-28T05:27:32;100572.79;;;6.22;69.36
34696;BME280;20918;51.138;17.370;2023-04-28T05:30:33;100573.38;;;6.27;69.11
34696;BME280;20918;51.138;17.370;2023-04-28T05:33:34;100572.29;;;6.30;69.00
34696;BME280;20918;51.138;17.370;2023-04-28T05:36:34;100573.84;;;6.33;68.61
34696;BME280;20918;51.138;17.370;2023-04-28T05:39:36;100570.91;;;6.40;68.48
34696;BME280;20918;51.138;17.370;2023-04-28T05:42:57;100574.96;;;6.47;68.15
34696;BME280;20918;51.138;17.370;2023-04-28T05:45:59;100574.10;;;6.55;67.84
34696;BME280;20918;51.138;17.370;2023-04-28T05:49:00;100575.31;;;6.59;67.62
34696;BME280;20918;51.138;17.370;2023-04-28T05:52:04;100578.16;;;6.57;66.71
34696;BME280;20918;51.138;17.370;2023-04-28T05:55:06;100576.20;;;6.59;66.65
34696;BME280;20918;51.138;17.370;2023-04-28T05:58:08;100570.77;;;6.67;67.08
34696;BME280;20918;51.138;17.370;2023-04-28T06:01:09;100564.48;;;6.81;66.02
34696;BME280;20918;51.138;17.370;2023-04-28T06:04:10;100562.75;;;6.85;65.83
34696;BME280;20918;51.138;17.370;2023-04-28T06:07:10;100563.21;;;6.88;65.50
34696;BME280;20918;51.138;17.370;2023-04-28T06:10:19;100564.00;;;6.95;65.57
34696;BME280;20918;51.138;17.370;2023-04-28T06:13:40;100559.85;;;7.32;66.01
34696;BME280;20918;51.138;17.370;2023-04-28T06:16:41;100556.39;;;7.77;64.46
34696;BME280;20918;51.138;17.370;2023-04-28T06:19:42;100556.66;;;8.01;63.16
34696;BME280;20918;51.138;17.370;2023-04-28T06:22:43;100549.42;;;8.34;64.21
34696;BME280;20918;51.138;17.370;2023-04-28T06:25:44;100545.17;;;8.56;61.89
34696;BME280;20918;51.138;17.370;2023-04-28T06:28:44;100546.74;;;8.60;61.48
34696;BME280;20918;51.138;17.370;2023-04-28T06:31:45;100543.79;;;8.85;61.60
34696;BME280;20918;51.138;17.370;2023-04-28T06:34:46;100542.02;;;9.17;60.64
34696;BME280;20918;51.138;17.370;2023-04-28T06:37:47;100538.44;;;9.23;60.14
34696;BME280;20918;51.138;17.370;2023-04-28T06:40:48;100536.76;;;9.09;60.78
34696;BME280;20918;51.138;17.370;2023-04-28T06:43:49;100536.97;;;9.16;60.52
34696;BME280;20918;51.138;17.370;2023-04-28T06:46:57;100537.30;;;9.62;60.65
34696;BME280;20918;51.138;17.370;2023-04-28T06:49:58;100532.47;;;10.13;59.69
34696;BME280;20918;51.138;17.370;2023-04-28T06:53:09;100530.45;;;10.40;57.49
34696;BME280;20918;51.138;17.370;2023-04-28T06:56:13;100528.27;;;10.69;58.19
34696;BME280;20918;51.138;17.370;2023-04-28T06:59:14;100531.20;;;11.05;58.50
34696;BME280;20918;51.138;17.370;2023-04-28T07:02:15;100529.73;;;11.31;57.09
34696;BME280;20918;51.138;17.370;2023-04-28T07:05:15;100528.14;;;11.58;57.52
34696;BME280;20918;51.138;17.370;2023-04-28T07:08:16;100524.11;;;12.10;57.04
34696;BME280;20918;51.138;17.370;2023-04-28T07:11:17;100519.50;;;12.38;56.07
34696;BME280;20918;51.138;17.370;2023-04-28T07:14:18;100519.31;;;12.37;55.74
34696;BME280;20918;51.138;17.370;2023-04-28T07:17:19;100517.77;;;12.47;55.46
34696;BME280;20918;51.138;17.370;2023-04-28T07:20:41;100509.66;;;12.44;54.20
34696;BME280;20918;51.138;17.370;2023-04-28T07:23:47;100503.50;;;12.43;52.54
34696;BME280;20918;51.138;17.370;2023-04-28T07:26:49;100497.21;;;12.58;52.73
34696;BME280;20918;51.138;17.370;2023-04-28T07:29:50;100494.98;;;12.96;51.97
34696;BME280;20918;51.138;17.370;2023-04-28T07:32:54;100493.76;;;13.25;52.23
34696;BME280;20918;51.138;17.370;2023-04-28T07:35:56;100490.38;;;13.61;51.81
34696;BME280;20918;51.138;17.370;2023-04-28T07:38:59;100487.16;;;13.80;51.13
34696;BME280;20918;51.138;17.370;2023-04-28T07:42:01;100480.63;;;13.95;50.21
34696;BME280;20918;51.138;17.370;2023-04-28T07:45:08;100478.13;;;14.26;50.28
34696;BME280;20918;51.138;17.370;2023-04-28T07:48:10;100476.54;;;14.38;49.44
34696;BME280;20918;51.138;17.370;2023-04-28T07:51:11;100474.02;;;14.34;49.33
34696;BME280;20918;51.138;17.370;2023-04-28T07:54:12;100471.98;;;14.84;49.40
34696;BME280;20918;51.138;17.370;2023-04-28T07:57:12;100466.95;;;15.41;48.03
34696;BME280;20918;51.138;17.370;2023-04-28T08:00:14;100465.22;;;15.69;47.01
34696;BME280;20918;51.138;17.370;2023-04-28T08:03:15;100468.45;;;15.94;46.52
34696;BME280;20918;51.138;17.370;2023-04-28T08:06:16;100461.05;;;16.04;44.31
34696;BME280;20918;51.138;17.370;2023-04-28T08:09:17;100465.77;;;15.98;44.50
34696;BME280;20918;51.138;17.370;2023-04-28T08:12:18;100462.63;;;16.06;44.12
34696;BME280;20918;51.138;17.370;2023-04-28T08:15:19;100460.11;;;16.06;43.74
34696;BME280;20918;51.138;17.370;2023-04-28T08:18:20;100454.96;;;15.90;42.10
34696;BME280;20918;51.138;17.370;2023-04-28T08:21:23;100455.40;;;15.67;40.89
34696;BME280;20918;51.138;17.370;2023-04-28T08:24:24;100454.27;;;15.48;42.19
34696;BME280;20918;51.138;17.370;2023-04-28T08:27:25;100448.69;;;15.55;43.18
34696;BME280;20918;51.138;17.370;2023-04-28T08:30:26;100447.80;;;15.60;42.69
34696;BME280;20918;51.138;17.370;2023-04-28T08:33:27;100443.58;;;15.58;42.34
34696;BME280;20918;51.138;17.370;2023-04-28T08:36:27;100441.06;;;15.83;42.75
34696;BME280;20918;51.138;17.370;2023-04-28T08:39:32;100436.10;;;16.11;42.25
34696;BME280;20918;51.138;17.370;2023-04-28T08:42:35;100434.84;;;16.44;41.93
34696;BME280;20918;51.138;17.370;2023-04-28T08:45:41;100434.49;;;16.58;41.11
34696;BME280;20918;51.138;17.370;2023-04-28T08:48:43;100426.79;;;16.50;40.79
34696;BME280;20918;51.138;17.370;2023-04-28T08:51:59;100422.06;;;16.52;40.64
34696;BME280;20918;51.138;17.370;2023-04-28T08:55:06;100418.70;;;16.84;40.59
34696;BME280;20918;51.138;17.370;2023-04-28T08:58:11;100422.20;;;16.88;38.71
34696;BME280;20918;51.138;17.370;2023-04-28T09:01:13;100416.14;;;16.86;39.66
34696;BME280;20918;51.138;17.370;2023-04-28T09:04:16;100417.20;;;17.09;38.83
34696;BME280;20918;51.138;17.370;2023-04-28T09:07:17;100414.88;;;17.08;38.77
34696;BME280;20918;51.138;17.370;2023-04-28T09:10:27;100410.52;;;17.06;39.03
34696;BME280;20918;51.138;17.370;2023-04-28T09:13:28;100409.23;;;16.92;38.92
34696;BME280;20918;51.138;17.370;2023-04-28T09:16:39;100401.50;;;16.61;37.99
34696;BME280;20918;51.138;17.370;2023-04-28T09:19:41;100399.23;;;16.53;38.42
34696;BME280;20918;51.138;17.370;2023-04-28T09:22:45;100393.25;;;16.53;37.56
34696;BME280;20918;51.138;17.370;2023-04-28T09:25:59;100386.77;;;16.59;37.30
34696;BME280;20918;51.138;17.370;2023-04-28T09:29:12;100380.23;;;16.71;38.06
34696;BME280;20918;51.138;17.370;2023-04-28T09:32:19;100376.88;;;17.14;39.28
34696;BME280;20918;51.138;17.370;2023-04-28T09:35:41;100370.39;;;17.45;38.72
34696;BME280;20918;51.138;17.370;2023-04-28T09:38:43;100367.27;;;17.55;35.88
34696;BME280;20918;51.138;17.370;2023-04-28T09:41:44;100365.19;;;17.50;36.68
34696;BME280;20918;51.138;17.370;2023-04-28T09:44:59;100358.96;;;17.54;36.02
34696;BME280;20918;51.138;17.370;2023-04-28T09:48:09;100348.58;;;17.46;35.97
34696;BME280;20918;51.138;17.370;2023-04-28T09:51:19;100342.88;;;17.45;35.31
34696;BME280;20918;51.138;17.370;2023-04-28T09:54:40;100342.71;;;17.39;35.04
34696;BME280;20918;51.138;17.370;2023-04-28T09:57:46;100335.48;;;17.64;36.27
34696;BME280;20918;51.138;17.370;2023-04-28T10:00:51;100333.95;;;17.83;35.48
34696;BME280;20918;51.138;17.370;2023-04-28T10:03:56;100328.25;;;18.03;36.01
34696;BME280;20918;51.138;17.370;2023-04-28T10:07:00;100321.50;;;18.26;36.32
34696;BME280;20918;51.138;17.370;2023-04-28T10:10:02;100322.67;;;18.42;35.16
34696;BME280;20918;51.138;17.370;2023-04-28T10:13:07;100316.60;;;18.39;34.37
34696;BME280;20918;51.138;17.370;2023-04-28T10:16:12;100310.55;;;18.26;34.32
34696;BME280;20918;51.138;17.370;2023-04-28T10:19:14;100307.96;;;18.10;34.15
34696;BME280;20918;51.138;17.370;2023-04-28T10:25:47;100298.96;;;17.95;33.64
34696;BME280;20918;51.138;17.370;2023-04-28T10:28:50;100296.87;;;17.71;34.08
34696;BME280;20918;51.138;17.370;2023-04-28T10:32:13;100285.52;;;17.88;34.68
34696;BME280;20918;51.138;17.370;2023-04-28T10:38:22;100279.93;;;18.16;34.08
34696;BME280;20918;51.138;17.370;2023-04-28T10:41:32;100279.56;;;18.13;34.39
34696;BME280;20918;51.138;17.370;2023-04-28T10:44:56;100273.61;;;18.24;35.15
34696;BME280;20918;51.138;17.370;2023-04-28T10:48:01;100271.98;;;18.53;34.62
34696;BME280;20918;51.138;17.370;2023-04-28T10:54:16;100260.00;;;18.29;34.67
34696;BME280;20918;51.138;17.370;2023-04-28T10:57:20;100254.78;;;18.38;34.04
34696;BME280;20918;51.138;17.370;2023-04-28T11:00:43;100252.58;;;18.36;35.19
34696;BME280;20918;51.138;17.370;2023-04-28T11:03:50;100247.20;;;18.50;34.98
34696;BME280;20918;51.138;17.370;2023-04-28T11:07:10;100252.23;;;18.67;34.96
34696;BME280;20918;51.138;17.370;2023-04-28T11:10:13;100256.43;;;18.80;34.69
34696;BME280;20918;51.138;17.370;2023-04-28T11:13:29;100251.74;;;18.51;34.21
34696;BME280;20918;51.138;17.370;2023-04-28T11:16:49;100243.52;;;18.35;34.58
34696;BME280;20918;51.138;17.370;2023-04-28T11:19:52;100238.73;;;18.43;34.67
34696;BME280;20918;51.138;17.370;2023-04-28T11:23:05;100243.59;;;18.53;35.22
34696;BME280;20918;51.138;17.370;2023-04-28T11:26:10;100245.44;;;18.76;35.33
34696;BME280;20918;51.138;17.370;2023-04-28T11:29:14;100239.63;;;18.99;35.48
34696;BME280;20918;51.138;17.370;2023-04-28T11:32:15;100236.16;;;19.18;35.37
34696;BME280;20918;51.138;17.370;2023-04-28T11:35:42;100238.17;;;19.14;33.91
34696;BME280;20918;51.138;17.370;2023-04-28T11:38:43;100235.84;;;18.62;33.51
34696;BME280;20918;51.138;17.370;2023-04-28T11:41:48;100229.46;;;18.37;34.56
34696;BME280;20918;51.138;17.370;2023-04-28T11:44:50;100234.98;;;18.49;34.88
34696;BME280;20918;51.138;17.370;2023-04-28T11:51:38;100230.38;;;18.27;33.96
34696;BME280;20918;51.138;17.370;2023-04-28T11:54:41;100225.39;;;18.06;33.65
34696;BME280;20918;51.138;17.370;2023-04-28T11:57:45;100212.35;;;18.23;35.04
34696;BME280;20918;51.138;17.370;2023-04-28T12:01:11;100215.67;;;18.54;34.18
34696;BME280;20918;51.138;17.370;2023-04-28T12:04:48;100210.52;;;18.40;33.32
34696;BME280;20918;51.138;17.370;2023-04-28T12:07:58;100200.23;;;18.25;33.28
34696;BME280;20918;51.138;17.370;2023-04-28T12:11:12;100191.33;;;18.12;32.65
34696;BME280;20918;51.138;17.370;2023-04-28T12:14:16;100199.57;;;17.90;32.88
34696;BME280;20918;51.138;17.370;2023-04-28T12:17:27;100196.45;;;17.84;33.16
34696;BME280;20918;51.138;17.370;2023-04-28T12:20:36;100192.97;;;17.87;33.74
34696;BME280;20918;51.138;17.370;2023-04-28T12:23:40;100184.35;;;18.06;34.23
34696;BME280;20918;51.138;17.370;2023-04-28T12:26:51;100182.56;;;18.28;33.85
34696;BME280;20918;51.138;17.370;2023-04-28T12:29:52;100177.86;;;18.21;33.76
34696;BME280;20918;51.138;17.370;2023-04-28T12:33:05;100175.95;;;18.06;33.00
34696;BME280;20918;51.138;17.370;2023-04-28T12:36:08;100173.85;;;17.88;32.89
34696;BME280;20918;51.138;17.370;2023-04-28T12:39:14;100180.86;;;17.75;33.48
34696;BME280;20918;51.138;17.370;2023-04-28T12:42:16;100179.08;;;17.81;34.07
34696;BME280;20918;51.138;17.370;2023-04-28T12:45:17;100179.23;;;17.96;34.60
34696;BME280;20918;51.138;17.370;2023-04-28T12:48:23;100175.80;;;18.25;34.79
34696;BME280;20918;51.138;17.370;2023-04-28T12:51:24;100174.75;;;18.48;34.72
34696;BME280;20918;51.138;17.370;2023-04-28T12:54:29;100172.16;;;18.65;33.99
34696;BME280;20918;51.138;17.370;2023-04-28T12:57:33;100163.33;;;18.58;34.02
34696;BME280;20918;51.138;17.370;2023-04-28T13:00:39;100159.86;;;18.51;34.28
34696;BME280;20918;51.138;17.370;2023-04-28T13:03:41;100158.73;;;18.45;34.45
34696;BME280;20918;51.138;17.370;2023-04-28T13:06:43;100156.98;;;18.41;34.60
34696;BME280;20918;51.138;17.370;2023-04-28T13:09:44;100151.40;;;18.31;34.22
34696;BME280;20918;51.138;17.370;2023-04-28T13:12:46;100149.92;;;18.15;34.48
34696;BME280;20918;51.138;17.370;2023-04-28T13:15:47;100141.24;;;18.08;34.67
34696;BME280;20918;51.138;17.370;2023-04-28T13:18:47;100135.06;;;17.98;35.00
34696;BME280;20918;51.138;17.370;2023-04-28T13:21:52;100131.16;;;17.88;35.25
34696;BME280;20918;51.138;17.370;2023-04-28T13:24:53;100134.66;;;17.88;35.13
34696;BME280;20918;51.138;17.370;2023-04-28T13:27:54;100132.13;;;17.84;34.97
34696;BME280;20918;51.138;17.370;2023-04-28T13:30:54;100129.90;;;17.77;34.89
34696;BME280;20918;51.138;17.370;2023-04-28T13:33:56;100130.98;;;17.77;35.34
34696;BME280;20918;51.138;17.370;2023-04-28T13:36:57;100129.20;;;17.93;35.66
34696;BME280;20918;51.138;17.370;2023-04-28T13:40:01;100121.81;;;18.12;35.23
34696;BME280;20918;51.138;17.370;2023-04-28T13:43:03;100120.36;;;18.11;34.78
34696;BME280;20918;51.138;17.370;2023-04-28T13:46:04;100112.83;;;18.09;33.95
34696;BME280;20918;51.138;17.370;2023-04-28T13:49:10;100109.67;;;17.98;33.68
34696;BME280;20918;51.138;17.370;2023-04-28T13:52:11;100104.26;;;17.98;34.26
34696;BME280;20918;51.138;17.370;2023-04-28T13:55:13;100099.08;;;18.19;34.59
34696;BME280;20918;51.138;17.370;2023-04-28T13:58:16;100095.60;;;18.28;34.20
34696;BME280;20918;51.138;17.370;2023-04-28T14:01:19;100087.92;;;18.09;34.26
34696;BME280;20918;51.138;17.370;2023-04-28T14:04:20;100091.36;;;18.01;34.60
34696;BME280;20918;51.138;17.370;2023-04-28T14:07:22;100087.77;;;17.95;34.40
34696;BME280;20918;51.138;17.370;2023-04-28T14:10:23;100092.33;;;17.89;34.06
34696;BME280;20918;51.138;17.370;2023-04-28T14:13:24;100083.55;;;17.88;34.23
34696;BME280;20918;51.138;17.370;2023-04-28T14:16:25;100080.63;;;17.91;33.69
34696;BME280;20918;51.138;17.370;2023-04-28T14:19:27;100075.95;;;17.88;34.02
34696;BME280;20918;51.138;17.370;2023-04-28T14:22:28;100076.70;;;18.02;34.75
34696;BME280;20918;51.138;17.370;2023-04-28T14:25:31;100077.73;;;18.24;34.65
34696;BME280;20918;51.138;17.370;2023-04-28T14:28:33;100075.05;;;18.25;33.83
34696;BME280;20918;51.138;17.370;2023-04-28T14:31:39;100068.77;;;18.23;33.91
34696;BME280;20918;51.138;17.370;2023-04-28T14:34:44;100067.05;;;18.22;34.12
34696;BME280;20918;51.138;17.370;2023-04-28T14:37:44;100057.87;;;18.38;34.40
34696;BME280;20918;51.138;17.370;2023-04-28T14:40:45;100058.82;;;18.38;33.77
34696;BME280;20918;51.138;17.370;2023-04-28T14:43:46;100053.73;;;18.30;34.39
34696;BME280;20918;51.138;17.370;2023-04-28T14:46:47;100053.83;;;18.32;33.87
34696;BME280;20918;51.138;17.370;2023-04-28T14:49:49;100052.70;;;18.17;33.25
34696;BME280;20918;51.138;17.370;2023-04-28T14:52:50;100053.89;;;17.95;33.15
34696;BME280;20918;51.138;17.370;2023-04-28T14:55:51;100050.63;;;17.87;33.65
34696;BME280;20918;51.138;17.370;2023-04-28T14:58:52;100047.40;;;17.89;33.73
34696;BME280;20918;51.138;17.370;2023-04-28T15:01:54;100043.31;;;17.90;34.01
34696;BME280;20918;51.138;17.370;2023-04-28T15:04:57;100045.69;;;17.87;33.70
34696;BME280;20918;51.138;17.370;2023-04-28T15:08:00;100043.50;;;17.76;33.85
34696;BME280;20918;51.138;17.370;2023-04-28T15:11:01;100040.64;;;17.70;34.32
34696;BME280;20918;51.138;17.370;2023-04-28T15:14:05;100040.21;;;17.56;34.10
34696;BME280;20918;51.138;17.370;2023-04-28T15:17:06;100035.35;;;17.38;34.08
34696;BME280;20918;51.138;17.370;2023-04-28T15:20:07;100029.05;;;17.24;34.28
34696;BME280;20918;51.138;17.370;2023-04-28T15:23:08;100026.31;;;17.18;34.70
34696;BME280;20918;51.138;17.370;2023-04-28T15:26:12;100022.23;;;17.18;35.15
34696;BME280;20918;51.138;17.370;2023-04-28T15:29:16;100020.49;;;17.19;34.82
34696;BME280;20918;51.138;17.370;2023-04-28T15:32:17;100016.90;;;17.13;34.63
34696;BME280;20918;51.138;17.370;2023-04-28T15:35:18;100014.70;;;17.05;35.26
34696;BME280;20918;51.138;17.370;2023-04-28T15:38:22;100010.58;;;16.99;35.10
34696;BME280;20918;51.138;17.370;2023-04-28T15:41:23;100009.33;;;16.90;34.88
34696;BME280;20918;51.138;17.370;2023-04-28T15:44:24;100004.77;;;16.81;35.51
34696;BME280;20918;51.138;17.370;2023-04-28T15:47:27;100005.82;;;16.70;35.33
34696;BME280;20918;51.138;17.370;2023-04-28T15:50:51;99999.64;;;16.64;35.57
34696;BME280;20918;51.138;17.370;2023-04-28T15:53:55;99999.07;;;16.61;35.46
34696;BME280;20918;51.138;17.370;2023-04-28T15:56:56;99994.54;;;16.58;35.65
34696;BME280;20918;51.138;17.370;2023-04-28T15:59:57;99993.02;;;16.54;35.29
34696;BME280;20918;51.138;17.370;2023-04-28T16:02:58;99994.92;;;16.52;35.81
34696;BME280;20918;51.138;17.370;2023-04-28T16:06:00;99992.86;;;16.46;35.85
34696;BME280;20918;51.138;17.370;2023-04-28T16:09:12;99990.06;;;16.42;35.93
34696;BME280;20918;51.138;17.370;2023-04-28T16:12:13;99989.92;;;16.35;35.82
34696;BME280;20918;51.138;17.370;2023-04-28T16:15:14;99989.88;;;16.29;36.37